sensor_id;sensor_type;location;lat;lon;timestamp;pressure;altitude;pressure_sealevel;temperature;humidity
32733;BME280;11867;51.198;11.966;2024-03-02T00:02:26;99417.84;;;6.67;100.00
32733;BME280;11867;51.198;11.966;2024-03-02T00:07:53;99426.94;;;6.11;100.00
32733;BME280;11867;51.198;11.966;2024-03-02T00:13:20;99422.91;;;5.52;100.00
32733;BME280;11867;51.198;11.966;2024-03-02T00:18:44;99422.06;;;5.82;100.00
32733;BME280;11867;51.198;11.966;2024-03-02T00:24:18;99400.78;;;6.66;100.00
32733;BME280;11867;51.198;11.966;2024-03-02T00:29:45;99407.75;;;6.83;99.15
32733;BME280;11867;51.198;11.966;2024-03-02T00:35:08;99406.59;;;6.94;98.31
32733;BME280;11867;51.198;11.966;2024-03-02T00:40:32;99406.50;;;6.60;100.00
32733;BME280;11867;51.198;11.966;2024-03-02T00:45:56;99404.13;;;7.03;97.20
32733;BME280;11867;51.198;11.966;2024-03-02T00:51:20;99407.22;;;6.81;98.99
32733;BME280;11867;51.198;11.966;2024-03-02T00:56:43;99410.69;;;6.97;97.14
32733;BME280;11867;51.198;11.966;2024-03-02T01:02:07;99404.22;;;5.92;100.00
32733;BME280;11867;51.198;11.966;2024-03-02T01:07:30;99399.50;;;6.54;100.00
32733;BME280;11867;51.198;11.966;2024-03-02T01:12:55;99402.06;;;6.79;98.12
32733;BME280;11867;51.198;11.966;2024-03-02T01:18:19;99399.09;;;6.81;97.06
32733;BME280;11867;51.198;11.966;2024-03-02T01:23:43;99400.13;;;6.90;97.32
32733;BME280;11867;51.198;11.966;2024-03-02T01:29:06;99397.06;;;7.07;95.87
32733;BME280;11867;51.198;11.966;2024-03-02T01:34:31;99398.81;;;7.27;95.25
32733;BME280;11867;51.198;11.966;2024-03-02T01:39:54;99395.13;;;7.13;95.39
32733;BME280;11867;51.198;11.966;2024-03-02T01:45:17;99395.56;;;6.10;100.00
32733;BME280;11867;51.198;11.966;2024-03-02T01:50:41;99395.38;;;6.61;99.71
32733;BME280;11867;51.198;11.966;2024-03-02T01:56:05;99397.94;;;6.97;96.74
32733;BME280;11867;51.198;11.966;2024-03-02T02:01:28;99394.75;;;6.85;97.07
32733;BME280;11867;51.198;11.966;2024-03-02T02:06:52;99393.69;;;6.76;96.94
32733;BME280;11867;51.198;11.966;2024-03-02T02:12:15;99406.91;;;6.17;100.00
32733;BME280;11867;51.198;11.966;2024-03-02T02:17:38;99395.31;;;6.77;98.77
32733;BME280;11867;51.198;11.966;2024-03-02T02:23:03;99403.78;;;7.15;95.93
32733;BME280;11867;51.198;11.966;2024-03-02T02:28:27;99406.84;;;6.98;95.72
32733;BME280;11867;51.198;11.966;2024-03-02T02:33:50;99408.91;;;6.61;96.41
32733;BME280;11867;51.198;11.966;2024-03-02T02:39:17;99411.25;;;5.93;100.00
32733;BME280;11867;51.198;11.966;2024-03-02T02:44:41;99401.31;;;6.69;98.77
32733;BME280;11867;51.198;11.966;2024-03-02T02:50:07;99391.50;;;6.83;97.43
32733;BME280;11867;51.198;11.966;2024-03-02T02:55:31;99395.50;;;6.96;96.11
32733;BME280;11867;51.198;11.966;2024-03-02T03:00:54;99389.75;;;7.07;95.51
32733;BME280;11867;51.198;11.966;2024-03-02T03:06:18;99403.53;;;6.56;98.69
32733;BME280;11867;51.198;11.966;2024-03-02T03:11:43;99395.47;;;7.01;95.02
32733;BME280;11867;51.198;11.966;2024-03-02T03:17:06;99393.88;;;6.95;95.43
32733;BME280;11867;51.198;11.966;2024-03-02T03:22:29;99389.38;;;6.70;96.74
32733;BME280;11867;51.198;11.966;2024-03-02T03:27:54;99399.69;;;6.67;98.22
32733;BME280;11867;51.198;11.966;2024-03-02T03:33:17;99405.63;;;6.75;96.52
32733;BME280;11867;51.198;11.966;2024-03-02T03:38:40;99404.47;;;6.91;95.51
32733;BME280;11867;51.198;11.966;2024-03-02T03:44:04;99407.75;;;6.02;99.52
32733;BME280;11867;51.198;11.966;2024-03-02T03:49:29;99407.28;;;6.71;97.43
32733;BME280;11867;51.198;11.966;2024-03-02T03:54:52;99407.53;;;6.74;97.38
32733;BME280;11867;51.198;11.966;2024-03-02T04:00:17;99421.06;;;6.74;97.31
32733;BME280;11867;51.198;11.966;2024-03-02T04:05:40;99416.69;;;6.83;96.29
32733;BME280;11867;51.198;11.966;2024-03-02T04:11:03;99423.75;;;6.79;96.65
32733;BME280;11867;51.198;11.966;2024-03-02T04:16:28;99428.50;;;6.43;99.58
32733;BME280;11867;51.198;11.966;2024-03-02T04:21:51;99429.22;;;6.69;97.97
32733;BME280;11867;51.198;11.966;2024-03-02T04:27:14;99427.97;;;7.06;95.24
32733;BME280;11867;51.198;11.966;2024-03-02T04:32:39;99425.44;;;7.20;94.80
32733;BME280;11867;51.198;11.966;2024-03-02T04:38:02;99439.13;;;6.94;95.72
32733;BME280;11867;51.198;11.966;2024-03-02T04:43:25;99435.88;;;6.97;95.56
32733;BME280;11867;51.198;11.966;2024-03-02T04:48:49;99440.53;;;6.86;96.74
32733;BME280;11867;51.198;11.966;2024-03-02T04:54:17;99437.78;;;6.97;96.47
32733;BME280;11867;51.198;11.966;2024-03-02T04:59:40;99441.56;;;7.01;95.79
32733;BME280;11867;51.198;11.966;2024-03-02T05:05:05;99440.97;;;7.09;95.44
32733;BME280;11867;51.198;11.966;2024-03-02T05:10:28;99440.91;;;7.19;94.85
32733;BME280;11867;51.198;11.966;2024-03-02T05:15:53;99441.41;;;7.26;94.24
32733;BME280;11867;51.198;11.966;2024-03-02T05:21:17;99439.34;;;7.08;96.09
32733;BME280;11867;51.198;11.966;2024-03-02T05:26:40;99435.97;;;7.26;95.08
32733;BME280;11867;51.198;11.966;2024-03-02T05:32:03;99444.91;;;7.27;95.09
32733;BME280;11867;51.198;11.966;2024-03-02T05:37:28;99463.03;;;7.32;94.83
32733;BME280;11867;51.198;11.966;2024-03-02T05:42:51;99464.53;;;6.33;100.00
32733;BME280;11867;51.198;11.966;2024-03-02T05:48:14;99459.50;;;6.86;99.42
32733;BME280;11867;51.198;11.966;2024-03-02T05:53:38;99457.25;;;7.04;98.62
32733;BME280;11867;51.198;11.966;2024-03-02T05:59:01;99475.84;;;6.66;100.00
32733;BME280;11867;51.198;11.966;2024-03-02T06:04:34;99487.81;;;6.34;100.00
32733;BME280;11867;51.198;11.966;2024-03-02T06:09:58;99477.13;;;6.79;100.00
32733;BME280;11867;51.198;11.966;2024-03-02T06:15:21;99476.31;;;7.33;98.57
32733;BME280;11867;51.198;11.966;2024-03-02T06:20:44;99475.94;;;7.50;97.17
32733;BME280;11867;51.198;11.966;2024-03-02T06:26:09;99476.31;;;7.38;98.12
32733;BME280;11867;51.198;11.966;2024-03-02T06:31:31;99483.19;;;7.65;97.64
32733;BME280;11867;51.198;11.966;2024-03-02T06:36:54;99485.53;;;7.77;96.94
32733;BME280;11867;51.198;11.966;2024-03-02T06:42:19;99490.50;;;7.64;97.16
32733;BME280;11867;51.198;11.966;2024-03-02T06:47:42;99488.69;;;7.89;96.92
32733;BME280;11867;51.198;11.966;2024-03-02T06:53:05;99490.09;;;8.16;95.92
32733;BME280;11867;51.198;11.966;2024-03-02T06:58:29;99492.44;;;8.27;96.03
32733;BME280;11867;51.198;11.966;2024-03-02T07:03:52;99494.31;;;7.63;99.91
32733;BME280;11867;51.198;11.966;2024-03-02T07:09:15;99492.09;;;7.71;100.00
32733;BME280;11867;51.198;11.966;2024-03-02T07:14:40;99494.53;;;7.72;100.00
32733;BME280;11867;51.198;11.966;2024-03-02T07:20:34;99494.56;;;8.01;100.00
32733;BME280;11867;51.198;11.966;2024-03-02T07:25:57;99502.72;;;8.01;100.00
32733;BME280;11867;51.198;11.966;2024-03-02T07:31:26;99508.63;;;7.74;100.00
32733;BME280;11867;51.198;11.966;2024-03-02T07:36:49;99498.94;;;8.32;100.00
32733;BME280;11867;51.198;11.966;2024-03-02T07:42:12;99497.28;;;8.31;100.00
32733;BME280;11867;51.198;11.966;2024-03-02T07:47:37;99484.13;;;8.72;100.00
32733;BME280;11867;51.198;11.966;2024-03-02T07:53:00;99493.34;;;9.19;99.76
32733;BME280;11867;51.198;11.966;2024-03-02T07:58:23;99505.19;;;9.66;95.97
32733;BME280;11867;51.198;11.966;2024-03-02T08:03:48;99510.03;;;9.88;94.43
32733;BME280;11867;51.198;11.966;2024-03-02T08:09:12;99507.22;;;9.94;94.89
32733;BME280;11867;51.198;11.966;2024-03-02T08:14:35;99507.34;;;10.21;93.68
32733;BME280;11867;51.198;11.966;2024-03-02T08:19:59;99511.59;;;10.27;93.46
32733;BME280;11867;51.198;11.966;2024-03-02T08:25:22;99512.88;;;10.49;92.17
32733;BME280;11867;51.198;11.966;2024-03-02T08:30:45;99507.94;;;10.51;92.53
32733;BME280;11867;51.198;11.966;2024-03-02T08:36:10;99513.50;;;10.46;92.92
32733;BME280;11867;51.198;11.966;2024-03-02T08:41:33;99520.34;;;10.57;92.13
32733;BME280;11867;51.198;11.966;2024-03-02T08:46:56;99535.41;;;10.03;96.54
32733;BME280;11867;51.198;11.966;2024-03-02T08:52:20;99531.16;;;10.48;93.52
32733;BME280;11867;51.198;11.966;2024-03-02T08:57:44;99534.63;;;9.83;95.81
32733;BME280;11867;51.198;11.966;2024-03-02T09:03:07;99541.47;;;9.43;100.00
32733;BME280;11867;51.198;11.966;2024-03-02T09:08:31;99533.81;;;9.64;98.27
32733;BME280;11867;51.198;11.966;2024-03-02T09:13:54;99542.50;;;10.37;95.38
32733;BME280;11867;51.198;11.966;2024-03-02T09:19:18;99552.00;;;11.27;89.68
32733;BME280;11867;51.198;11.966;2024-03-02T09:24:43;99553.03;;;10.43;92.25
32733;BME280;11867;51.198;11.966;2024-03-02T09:30:08;99558.78;;;11.02;91.20
32733;BME280;11867;51.198;11.966;2024-03-02T09:35:45;99561.19;;;11.45;89.74
32733;BME280;11867;51.198;11.966;2024-03-02T09:41:09;99559.75;;;11.62;86.86
32733;BME280;11867;51.198;11.966;2024-03-02T09:46:33;99569.44;;;12.04;86.32
32733;BME280;11867;51.198;11.966;2024-03-02T09:51:58;99566.03;;;12.21;84.25
32733;BME280;11867;51.198;11.966;2024-03-02T09:57:23;99573.97;;;12.09;83.90
32733;BME280;11867;51.198;11.966;2024-03-02T10:02:46;99579.50;;;11.17;87.81
32733;BME280;11867;51.198;11.966;2024-03-02T10:08:11;99580.69;;;10.97;89.47
32733;BME280;11867;51.198;11.966;2024-03-02T10:13:35;99581.09;;;11.18;88.13
32733;BME280;11867;51.198;11.966;2024-03-02T10:18:58;99574.50;;;11.61;87.66
32733;BME280;11867;51.198;11.966;2024-03-02T10:24:22;99574.41;;;11.66;85.79
32733;BME280;11867;51.198;11.966;2024-03-02T10:29:47;99563.81;;;11.23;88.64
32733;BME280;11867;51.198;11.966;2024-03-02T10:35:10;99554.75;;;11.00;88.94
32733;BME280;11867;51.198;11.966;2024-03-02T10:40:34;99566.22;;;10.83;89.37
32733;BME280;11867;51.198;11.966;2024-03-02T10:45:58;99558.16;;;11.33;88.39
32733;BME280;11867;51.198;11.966;2024-03-02T10:51:21;99545.84;;;12.08;85.24
32733;BME280;11867;51.198;11.966;2024-03-02T10:56:46;99551.06;;;12.41;82.30
32733;BME280;11867;51.198;11.966;2024-03-02T11:02:12;99551.94;;;12.82;81.22
32733;BME280;11867;51.198;11.966;2024-03-02T11:07:37;99542.69;;;13.92;76.82
32733;BME280;11867;51.198;11.966;2024-03-02T11:13:03;99549.16;;;14.14;75.54
32733;BME280;11867;51.198;11.966;2024-03-02T11:18:29;99544.44;;;16.86;66.38
32733;BME280;11867;51.198;11.966;2024-03-02T11:23:53;99534.66;;;19.74;60.37
32733;BME280;11867;51.198;11.966;2024-03-02T11:29:42;99524.69;;;22.30;52.95
32733;BME280;11867;51.198;11.966;2024-03-02T11:35:07;99533.16;;;21.01;53.97
32733;BME280;11867;51.198;11.966;2024-03-02T11:40:30;99521.69;;;22.91;53.22
32733;BME280;11867;51.198;11.966;2024-03-02T11:45:57;99514.34;;;23.09;51.25
32733;BME280;11867;51.198;11.966;2024-03-02T11:51:22;99505.94;;;23.02;50.10
32733;BME280;11867;51.198;11.966;2024-03-02T11:56:48;99505.94;;;23.68;50.47
32733;BME280;11867;51.198;11.966;2024-03-02T12:02:15;99513.22;;;23.87;49.72
32733;BME280;11867;51.198;11.966;2024-03-02T12:07:41;99506.78;;;21.37;53.60
32733;BME280;11867;51.198;11.966;2024-03-02T12:13:05;99484.00;;;24.65;48.61
32733;BME280;11867;51.198;11.966;2024-03-02T12:18:29;99479.97;;;22.43;52.93
32733;BME280;11867;51.198;11.966;2024-03-02T12:23:53;99474.28;;;21.07;54.78
32733;BME280;11867;51.198;11.966;2024-03-02T12:29:18;99476.97;;;23.03;51.80
32733;BME280;11867;51.198;11.966;2024-03-02T12:34:41;99477.94;;;22.81;51.32
32733;BME280;11867;51.198;11.966;2024-03-02T12:40:09;99476.22;;;23.83;49.23
32733;BME280;11867;51.198;11.966;2024-03-02T12:45:33;99476.59;;;26.71;45.19
32733;BME280;11867;51.198;11.966;2024-03-02T12:50:56;99482.63;;;23.94;48.27
32733;BME280;11867;51.198;11.966;2024-03-02T12:56:21;99478.69;;;24.10;48.51
32733;BME280;11867;51.198;11.966;2024-03-02T13:01:50;99457.47;;;27.07;43.46
32733;BME280;11867;51.198;11.966;2024-03-02T13:07:13;99442.66;;;22.03;53.28
32733;BME280;11867;51.198;11.966;2024-03-02T13:12:37;99449.69;;;24.11;48.86
32733;BME280;11867;51.198;11.966;2024-03-02T13:18:00;99440.56;;;24.21;47.32
32733;BME280;11867;51.198;11.966;2024-03-02T13:23:23;99441.63;;;20.24;54.46
32733;BME280;11867;51.198;11.966;2024-03-02T13:28:48;99437.75;;;18.64;56.61
32733;BME280;11867;51.198;11.966;2024-03-02T13:34:11;99435.09;;;19.54;55.23
32733;BME280;11867;51.198;11.966;2024-03-02T13:39:34;99425.94;;;21.62;50.93
32733;BME280;11867;51.198;11.966;2024-03-02T13:45:04;99425.72;;;20.90;51.91
32733;BME280;11867;51.198;11.966;2024-03-02T13:50:27;99422.38;;;22.81;50.03
32733;BME280;11867;51.198;11.966;2024-03-02T13:55:51;99408.84;;;21.60;51.30
32733;BME280;11867;51.198;11.966;2024-03-02T14:01:18;99418.47;;;20.36;54.15
32733;BME280;11867;51.198;11.966;2024-03-02T14:06:42;99414.13;;;16.94;60.92
32733;BME280;11867;51.198;11.966;2024-03-02T14:12:05;99417.56;;;18.92;56.75
32733;BME280;11867;51.198;11.966;2024-03-02T14:17:30;99410.09;;;17.85;59.68
32733;BME280;11867;51.198;11.966;2024-03-02T14:22:53;99407.75;;;18.31;58.33
32733;BME280;11867;51.198;11.966;2024-03-02T14:28:16;99400.34;;;18.03;58.31
32733;BME280;11867;51.198;11.966;2024-03-02T14:34:02;99405.91;;;19.38;55.54
32733;BME280;11867;51.198;11.966;2024-03-02T14:39:25;99400.34;;;18.83;55.42
32733;BME280;11867;51.198;11.966;2024-03-02T14:44:49;99417.69;;;18.04;58.26
32733;BME280;11867;51.198;11.966;2024-03-02T14:50:13;99402.50;;;17.53;59.57
32733;BME280;11867;51.198;11.966;2024-03-02T14:55:38;99399.81;;;17.98;58.95
32733;BME280;11867;51.198;11.966;2024-03-02T15:01:01;99395.16;;;17.58;59.38
32733;BME280;11867;51.198;11.966;2024-03-02T15:06:25;99382.97;;;19.18;54.91
32733;BME280;11867;51.198;11.966;2024-03-02T15:11:48;99390.78;;;19.31;55.10
32733;BME280;11867;51.198;11.966;2024-03-02T15:17:12;99394.81;;;16.32;62.47
32733;BME280;11867;51.198;11.966;2024-03-02T15:22:38;99393.66;;;17.07;61.20
32733;BME280;11867;51.198;11.966;2024-03-02T15:28:01;99387.28;;;16.54;62.62
32733;BME280;11867;51.198;11.966;2024-03-02T15:33:25;99385.22;;;15.60;65.64
32733;BME280;11867;51.198;11.966;2024-03-02T15:38:54;99374.69;;;15.83;65.54
32733;BME280;11867;51.198;11.966;2024-03-02T15:44:18;99371.38;;;15.35;66.65
32733;BME280;11867;51.198;11.966;2024-03-02T15:49:41;99372.13;;;14.81;68.16
32733;BME280;11867;51.198;11.966;2024-03-02T15:55:06;99376.28;;;14.19;70.05
32733;BME280;11867;51.198;11.966;2024-03-02T16:00:29;99373.00;;;13.87;71.16
32733;BME280;11867;51.198;11.966;2024-03-02T16:05:52;99377.44;;;14.48;69.50
32733;BME280;11867;51.198;11.966;2024-03-02T16:11:16;99377.91;;;14.11;70.64
32733;BME280;11867;51.198;11.966;2024-03-02T16:16:40;99378.34;;;13.66;72.84
32733;BME280;11867;51.198;11.966;2024-03-02T16:22:03;99371.59;;;13.29;74.44
32733;BME280;11867;51.198;11.966;2024-03-02T16:27:29;99378.34;;;13.05;75.92
32733;BME280;11867;51.198;11.966;2024-03-02T16:32:52;99381.88;;;13.15;76.01
32733;BME280;11867;51.198;11.966;2024-03-02T16:38:15;99375.78;;;13.18;75.88
32733;BME280;11867;51.198;11.966;2024-03-02T16:43:39;99379.78;;;12.94;76.72
32733;BME280;11867;51.198;11.966;2024-03-02T16:49:03;99375.16;;;12.46;78.56
32733;BME280;11867;51.198;11.966;2024-03-02T16:54:26;99389.03;;;12.18;80.08
32733;BME280;11867;51.198;11.966;2024-03-02T16:59:51;99383.22;;;12.51;79.66
32733;BME280;11867;51.198;11.966;2024-03-02T17:05:15;99388.19;;;12.09;81.40
32733;BME280;11867;51.198;11.966;2024-03-02T17:10:42;99399.66;;;12.20;80.90
32733;BME280;11867;51.198;11.966;2024-03-02T17:16:11;99402.44;;;11.97;81.12
32733;BME280;11867;51.198;11.966;2024-03-02T17:21:35;99408.88;;;12.32;80.15
32733;BME280;11867;51.198;11.966;2024-03-02T17:26:58;99415.50;;;12.40;79.43
32733;BME280;11867;51.198;11.966;2024-03-02T17:32:23;99414.91;;;12.52;78.81
32733;BME280;11867;51.198;11.966;2024-03-02T17:37:46;99422.41;;;12.78;77.45
32733;BME280;11867;51.198;11.966;2024-03-02T17:43:12;99426.13;;;13.08;76.08
32733;BME280;11867;51.198;11.966;2024-03-02T17:48:37;99423.19;;;11.84;81.51
32733;BME280;11867;51.198;11.966;2024-03-02T17:54:00;99425.91;;;12.29;80.01
32733;BME280;11867;51.198;11.966;2024-03-02T17:59:22;99429.03;;;11.46;84.54
32733;BME280;11867;51.198;11.966;2024-03-02T18:04:47;99438.13;;;11.05;87.42
32733;BME280;11867;51.198;11.966;2024-03-02T18:10:10;99434.88;;;11.99;82.47
32733;BME280;11867;51.198;11.966;2024-03-02T18:15:33;99431.66;;;11.51;84.71
32733;BME280;11867;51.198;11.966;2024-03-02T18:20:59;99441.03;;;11.23;85.99
32733;BME280;11867;51.198;11.966;2024-03-02T18:26:24;99441.38;;;11.07;87.28
32733;BME280;11867;51.198;11.966;2024-03-02T18:31:49;99434.19;;;11.11;86.74
32733;BME280;11867;51.198;11.966;2024-03-02T18:37:13;99443.59;;;11.78;83.06
32733;BME280;11867;51.198;11.966;2024-03-02T18:42:38;99436.06;;;11.84;82.44
32733;BME280;11867;51.198;11.966;2024-03-02T18:48:01;99432.78;;;11.96;81.25
32733;BME280;11867;51.198;11.966;2024-03-02T18:53:26;99442.31;;;10.61;90.77
32733;BME280;11867;51.198;11.966;2024-03-02T18:58:49;99439.69;;;10.84;90.13
32733;BME280;11867;51.198;11.966;2024-03-02T19:04:12;99447.06;;;10.69;91.42
32733;BME280;11867;51.198;11.966;2024-03-02T19:09:36;99444.53;;;11.37;86.71
32733;BME280;11867;51.198;11.966;2024-03-02T19:15:00;99434.88;;;11.17;87.59
32733;BME280;11867;51.198;11.966;2024-03-02T19:20:23;99434.75;;;11.59;85.44
32733;BME280;11867;51.198;11.966;2024-03-02T19:25:49;99436.31;;;11.15;86.90
32733;BME280;11867;51.198;11.966;2024-03-02T19:31:12;99433.34;;;11.25;85.62
32733;BME280;11867;51.198;11.966;2024-03-02T19:36:36;99442.81;;;10.63;88.10
32733;BME280;11867;51.198;11.966;2024-03-02T19:42:02;99427.84;;;10.88;86.57
32733;BME280;11867;51.198;11.966;2024-03-02T19:47:25;99431.63;;;10.04;91.44
32733;BME280;11867;51.198;11.966;2024-03-02T19:52:48;99433.94;;;9.45;96.28
32733;BME280;11867;51.198;11.966;2024-03-02T19:58:12;99436.59;;;9.13;99.03
32733;BME280;11867;51.198;11.966;2024-03-02T20:03:35;99424.13;;;9.82;94.52
32733;BME280;11867;51.198;11.966;2024-03-02T20:08:58;99425.31;;;9.76;94.23
32733;BME280;11867;51.198;11.966;2024-03-02T20:14:23;99417.69;;;10.06;91.61
32733;BME280;11867;51.198;11.966;2024-03-02T20:19:45;99419.25;;;10.26;90.21
32733;BME280;11867;51.198;11.966;2024-03-02T20:25:09;99417.16;;;10.37;88.60
32733;BME280;11867;51.198;11.966;2024-03-02T20:30:35;99417.63;;;10.11;89.28
32733;BME280;11867;51.198;11.966;2024-03-02T20:36:01;99413.88;;;10.07;89.39
32733;BME280;11867;51.198;11.966;2024-03-02T20:41:24;99412.66;;;9.99;89.45
32733;BME280;11867;51.198;11.966;2024-03-02T20:46:49;99411.22;;;9.36;91.91
32733;BME280;11867;51.198;11.966;2024-03-02T20:52:12;99405.91;;;9.64;92.11
32733;BME280;11867;51.198;11.966;2024-03-02T20:57:35;99397.47;;;9.79;89.61
32733;BME280;11867;51.198;11.966;2024-03-02T21:02:59;99388.09;;;9.72;88.71
32733;BME280;11867;51.198;11.966;2024-03-02T21:08:22;99388.97;;;9.15;92.97
32733;BME280;11867;51.198;11.966;2024-03-02T21:13:47;99386.06;;;8.68;94.73
32733;BME280;11867;51.198;11.966;2024-03-02T21:19:12;99380.22;;;8.99;93.12
32733;BME280;11867;51.198;11.966;2024-03-02T21:24:35;99377.72;;;8.84;92.24
32733;BME280;11867;51.198;11.966;2024-03-02T21:29:59;99372.91;;;8.08;97.87
32733;BME280;11867;51.198;11.966;2024-03-02T21:35:23;99373.53;;;7.71;100.00
32733;BME280;11867;51.198;11.966;2024-03-02T21:40:46;99373.72;;;7.80;99.07
32733;BME280;11867;51.198;11.966;2024-03-02T21:46:10;99375.22;;;7.62;97.93
32733;BME280;11867;51.198;11.966;2024-03-02T21:51:35;99365.78;;;7.54;99.76
32733;BME280;11867;51.198;11.966;2024-03-02T21:56:58;99349.00;;;7.52;98.21
32733;BME280;11867;51.198;11.966;2024-03-02T22:02:25;99361.41;;;6.35;100.00
32733;BME280;11867;51.198;11.966;2024-03-02T22:07:50;99349.28;;;6.77;100.00
32733;BME280;11867;51.198;11.966;2024-03-02T22:13:14;99336.78;;;7.20;100.00
32733;BME280;11867;51.198;11.966;2024-03-02T22:18:41;99336.31;;;8.01;94.35
32733;BME280;11867;51.198;11.966;2024-03-02T22:24:06;99339.09;;;7.66;94.36
32733;BME280;11867;51.198;11.966;2024-03-02T22:29:29;99333.41;;;6.99;100.00
32733;BME280;11867;51.198;11.966;2024-03-02T22:34:52;99340.03;;;6.83;98.08
32733;BME280;11867;51.198;11.966;2024-03-02T22:40:17;99330.78;;;6.39;100.00
32733;BME280;11867;51.198;11.966;2024-03-02T22:45:41;99335.25;;;7.43;96.34
32733;BME280;11867;51.198;11.966;2024-03-02T22:51:04;99340.63;;;6.75;99.67
32733;BME280;11867;51.198;11.966;2024-03-02T22:56:31;99328.78;;;7.05;98.22
32733;BME280;11867;51.198;11.966;2024-03-02T23:01:54;99340.75;;;7.33;94.89
32733;BME280;11867;51.198;11.966;2024-03-02T23:07:17;99333.81;;;7.22;94.50
32733;BME280;11867;51.198;11.966;2024-03-02T23:12:43;99330.94;;;7.37;93.32
32733;BME280;11867;51.198;11.966;2024-03-02T23:18:06;99336.63;;;5.81;100.00
32733;BME280;11867;51.198;11.966;2024-03-02T23:23:29;99336.16;;;6.50;98.96
32733;BME280;11867;51.198;11.966;2024-03-02T23:28:53;99331.19;;;5.97;99.29
32733;BME280;11867;51.198;11.966;2024-03-02T23:34:17;99340.44;;;4.98;100.00
32733;BME280;11867;51.198;11.966;2024-03-02T23:39:39;99339.09;;;5.21;100.00
32733;BME280;11867;51.198;11.966;2024-03-02T23:45:28;99324.69;;;4.59;100.00
32733;BME280;11867;51.198;11.966;2024-03-02T23:50:51;99326.09;;;5.08;100.00
32733;BME280;11867;51.198;11.966;2024-03-02T23:56:14;99320.97;;;5.42;100.00
